sensor_id;sensor_type;location;lat;lon;timestamp;temperature;humidity
10980;DHT22;5543;51.734;8.744;2023-05-16T00:01:59;11.70;99.90
10980;DHT22;5543;51.734;8.744;2023-05-16T00:04:28;11.70;99.90
10980;DHT22;5543;51.734;8.744;2023-05-16T00:06:58;11.70;99.90
10980;DHT22;5543;51.734;8.744;2023-05-16T00:09:27;11.70;99.90
10980;DHT22;5543;51.734;8.744;2023-05-16T00:11:55;11.70;99.90
10980;DHT22;5543;51.734;8.744;2023-05-16T00:14:23;11.70;99.90
10980;DHT22;5543;51.734;8.744;2023-05-16T00:16:53;11.60;99.90
10980;DHT22;5543;51.734;8.744;2023-05-16T00:19:24;11.60;99.90
10980;DHT22;5543;51.734;8.744;2023-05-16T00:21:53;11.60;99.90
10980;DHT22;5543;51.734;8.744;2023-05-16T00:24:21;11.50;99.90
10980;DHT22;5543;51.734;8.744;2023-05-16T00:26:49;11.50;99.90
10980;DHT22;5543;51.734;8.744;2023-05-16T00:29:18;11.40;99.90
10980;DHT22;5543;51.734;8.744;2023-05-16T00:31:46;11.30;99.90
10980;DHT22;5543;51.734;8.744;2023-05-16T00:34:14;11.30;99.90
10980;DHT22;5543;51.734;8.744;2023-05-16T00:36:44;11.50;99.90
10980;DHT22;5543;51.734;8.744;2023-05-16T00:39:12;11.30;99.90
10980;DHT22;5543;51.734;8.744;2023-05-16T00:41:40;11.20;99.90
10980;DHT22;5543;51.734;8.744;2023-05-16T00:44:08;11.20;99.90
10980;DHT22;5543;51.734;8.744;2023-05-16T00:46:36;11.10;99.90
10980;DHT22;5543;51.734;8.744;2023-05-16T00:49:05;11.10;99.90
10980;DHT22;5543;51.734;8.744;2023-05-16T00:51:33;11.10;99.90
10980;DHT22;5543;51.734;8.744;2023-05-16T00:54:03;11.10;99.90
10980;DHT22;5543;51.734;8.744;2023-05-16T00:56:32;11.10;99.90
10980;DHT22;5543;51.734;8.744;2023-05-16T00:59:00;11.10;99.90
10980;DHT22;5543;51.734;8.744;2023-05-16T01:01:29;11.40;99.90
10980;DHT22;5543;51.734;8.744;2023-05-16T01:03:59;11.10;99.90
10980;DHT22;5543;51.734;8.744;2023-05-16T01:06:27;11.20;99.90
10980;DHT22;5543;51.734;8.744;2023-05-16T01:08:55;11.10;99.90
10980;DHT22;5543;51.734;8.744;2023-05-16T01:11:33;11.50;99.90
10980;DHT22;5543;51.734;8.744;2023-05-16T01:14:09;11.10;99.90
10980;DHT22;5543;51.734;8.744;2023-05-16T01:16:41;11.10;99.90
10980;DHT22;5543;51.734;8.744;2023-05-16T01:19:19;11.10;99.90
10980;DHT22;5543;51.734;8.744;2023-05-16T01:21:58;11.10;99.90
10980;DHT22;5543;51.734;8.744;2023-05-16T01:24:33;11.10;99.90
10980;DHT22;5543;51.734;8.744;2023-05-16T01:27:05;11.00;99.90
10980;DHT22;5543;51.734;8.744;2023-05-16T01:29:34;11.00;99.90
10980;DHT22;5543;51.734;8.744;2023-05-16T01:32:02;11.00;99.90
10980;DHT22;5543;51.734;8.744;2023-05-16T01:34:32;11.10;99.90
10980;DHT22;5543;51.734;8.744;2023-05-16T01:37:08;11.10;99.90
10980;DHT22;5543;51.734;8.744;2023-05-16T01:39:44;11.00;99.90
10980;DHT22;5543;51.734;8.744;2023-05-16T01:42:15;11.00;99.90
10980;DHT22;5543;51.734;8.744;2023-05-16T01:44:49;11.60;99.90
10980;DHT22;5543;51.734;8.744;2023-05-16T01:47:19;11.00;99.90
10980;DHT22;5543;51.734;8.744;2023-05-16T01:49:57;11.00;99.90
10980;DHT22;5543;51.734;8.744;2023-05-16T01:52:33;11.00;99.90
10980;DHT22;5543;51.734;8.744;2023-05-16T01:55:02;11.00;99.90
10980;DHT22;5543;51.734;8.744;2023-05-16T01:57:32;11.00;99.90
10980;DHT22;5543;51.734;8.744;2023-05-16T02:00:01;10.90;99.90
10980;DHT22;5543;51.734;8.744;2023-05-16T02:02:30;10.90;99.90
10980;DHT22;5543;51.734;8.744;2023-05-16T02:04:58;10.90;99.90
10980;DHT22;5543;51.734;8.744;2023-05-16T02:07:26;11.00;99.90
10980;DHT22;5543;51.734;8.744;2023-05-16T02:09:54;11.20;99.90
10980;DHT22;5543;51.734;8.744;2023-05-16T02:12:23;10.90;99.90
10980;DHT22;5543;51.734;8.744;2023-05-16T02:14:53;10.90;99.90
10980;DHT22;5543;51.734;8.744;2023-05-16T02:17:21;10.90;99.90
10980;DHT22;5543;51.734;8.744;2023-05-16T02:19:49;10.90;99.90
10980;DHT22;5543;51.734;8.744;2023-05-16T02:22:18;10.90;99.90
10980;DHT22;5543;51.734;8.744;2023-05-16T02:24:46;11.30;99.90
10980;DHT22;5543;51.734;8.744;2023-05-16T02:27:14;11.40;99.90
10980;DHT22;5543;51.734;8.744;2023-05-16T02:29:42;12.10;99.90
10980;DHT22;5543;51.734;8.744;2023-05-16T02:32:11;11.30;99.90
10980;DHT22;5543;51.734;8.744;2023-05-16T02:34:39;10.90;99.90
10980;DHT22;5543;51.734;8.744;2023-05-16T02:37:08;11.60;99.90
10980;DHT22;5543;51.734;8.744;2023-05-16T02:39:39;10.90;99.90
10980;DHT22;5543;51.734;8.744;2023-05-16T02:42:07;10.90;99.90
10980;DHT22;5543;51.734;8.744;2023-05-16T02:44:36;11.00;99.90
10980;DHT22;5543;51.734;8.744;2023-05-16T02:47:04;11.60;99.90
10980;DHT22;5543;51.734;8.744;2023-05-16T02:49:33;10.80;99.90
10980;DHT22;5543;51.734;8.744;2023-05-16T02:52:01;11.50;99.90
10980;DHT22;5543;51.734;8.744;2023-05-16T02:54:29;10.80;99.90
10980;DHT22;5543;51.734;8.744;2023-05-16T02:56:58;10.70;99.90
10980;DHT22;5543;51.734;8.744;2023-05-16T02:59:26;10.70;99.90
10980;DHT22;5543;51.734;8.744;2023-05-16T03:01:54;10.70;99.90
10980;DHT22;5543;51.734;8.744;2023-05-16T03:04:22;10.50;99.90
10980;DHT22;5543;51.734;8.744;2023-05-16T03:06:51;10.40;99.90
10980;DHT22;5543;51.734;8.744;2023-05-16T03:09:19;10.30;99.90
10980;DHT22;5543;51.734;8.744;2023-05-16T03:11:47;10.20;99.90
10980;DHT22;5543;51.734;8.744;2023-05-16T03:14:15;10.10;99.90
10980;DHT22;5543;51.734;8.744;2023-05-16T03:16:44;10.10;99.90
10980;DHT22;5543;51.734;8.744;2023-05-16T03:19:12;10.30;99.90
10980;DHT22;5543;51.734;8.744;2023-05-16T03:21:40;9.90;99.90
10980;DHT22;5543;51.734;8.744;2023-05-16T03:24:10;9.90;99.90
10980;DHT22;5543;51.734;8.744;2023-05-16T03:26:38;10.70;99.90
10980;DHT22;5543;51.734;8.744;2023-05-16T03:29:06;9.90;99.90
10980;DHT22;5543;51.734;8.744;2023-05-16T03:31:34;10.70;99.90
10980;DHT22;5543;51.734;8.744;2023-05-16T03:34:02;9.80;99.90
10980;DHT22;5543;51.734;8.744;2023-05-16T03:36:30;10.10;99.90
10980;DHT22;5543;51.734;8.744;2023-05-16T03:38:58;10.20;99.90
10980;DHT22;5543;51.734;8.744;2023-05-16T03:41:28;9.80;99.90
10980;DHT22;5543;51.734;8.744;2023-05-16T03:43:56;10.60;99.90
10980;DHT22;5543;51.734;8.744;2023-05-16T03:46:24;10.10;99.90
10980;DHT22;5543;51.734;8.744;2023-05-16T03:48:52;9.70;99.90
10980;DHT22;5543;51.734;8.744;2023-05-16T03:51:20;9.70;99.90
10980;DHT22;5543;51.734;8.744;2023-05-16T03:53:49;9.70;99.90
10980;DHT22;5543;51.734;8.744;2023-05-16T03:56:17;9.70;99.90
10980;DHT22;5543;51.734;8.744;2023-05-16T03:58:46;9.60;99.90
10980;DHT22;5543;51.734;8.744;2023-05-16T04:01:14;9.60;99.90
10980;DHT22;5543;51.734;8.744;2023-05-16T04:03:42;9.60;99.90
10980;DHT22;5543;51.734;8.744;2023-05-16T04:06:10;9.70;99.90
10980;DHT22;5543;51.734;8.744;2023-05-16T04:08:39;9.60;99.90
10980;DHT22;5543;51.734;8.744;2023-05-16T04:11:09;9.60;99.90
10980;DHT22;5543;51.734;8.744;2023-05-16T04:13:37;9.70;99.90
10980;DHT22;5543;51.734;8.744;2023-05-16T04:16:07;9.60;99.90
10980;DHT22;5543;51.734;8.744;2023-05-16T04:18:35;9.60;99.90
10980;DHT22;5543;51.734;8.744;2023-05-16T04:21:04;9.60;99.90
10980;DHT22;5543;51.734;8.744;2023-05-16T04:23:32;9.60;99.90
10980;DHT22;5543;51.734;8.744;2023-05-16T04:26:00;9.50;99.90
10980;DHT22;5543;51.734;8.744;2023-05-16T04:28:30;9.60;99.90
10980;DHT22;5543;51.734;8.744;2023-05-16T04:30:58;9.50;99.90
10980;DHT22;5543;51.734;8.744;2023-05-16T04:33:28;10.30;99.90
10980;DHT22;5543;51.734;8.744;2023-05-16T04:35:56;9.50;99.90
10980;DHT22;5543;51.734;8.744;2023-05-16T04:38:25;9.60;99.90
10980;DHT22;5543;51.734;8.744;2023-05-16T04:40:53;9.90;99.90
10980;DHT22;5543;51.734;8.744;2023-05-16T04:43:21;9.60;99.90
10980;DHT22;5543;51.734;8.744;2023-05-16T04:45:49;9.60;99.90
10980;DHT22;5543;51.734;8.744;2023-05-16T04:48:19;10.00;99.90
10980;DHT22;5543;51.734;8.744;2023-05-16T04:50:49;10.50;99.90
10980;DHT22;5543;51.734;8.744;2023-05-16T04:53:18;9.70;99.90
10980;DHT22;5543;51.734;8.744;2023-05-16T04:55:46;9.70;99.90
10980;DHT22;5543;51.734;8.744;2023-05-16T04:58:14;9.80;99.90
10980;DHT22;5543;51.734;8.744;2023-05-16T05:00:42;10.40;99.90
10980;DHT22;5543;51.734;8.744;2023-05-16T05:03:10;11.20;99.90
10980;DHT22;5543;51.734;8.744;2023-05-16T05:05:38;9.80;99.90
10980;DHT22;5543;51.734;8.744;2023-05-16T05:08:08;9.90;99.90
10980;DHT22;5543;51.734;8.744;2023-05-16T05:10:36;10.00;99.90
10980;DHT22;5543;51.734;8.744;2023-05-16T05:13:04;10.20;99.90
10980;DHT22;5543;51.734;8.744;2023-05-16T05:15:32;9.90;99.90
10980;DHT22;5543;51.734;8.744;2023-05-16T05:18:00;11.30;99.90
10980;DHT22;5543;51.734;8.744;2023-05-16T05:20:28;10.90;99.90
10980;DHT22;5543;51.734;8.744;2023-05-16T05:22:56;9.90;99.90
10980;DHT22;5543;51.734;8.744;2023-05-16T05:25:26;9.90;99.90
10980;DHT22;5543;51.734;8.744;2023-05-16T05:27:54;9.90;99.90
10980;DHT22;5543;51.734;8.744;2023-05-16T05:30:23;10.30;99.90
10980;DHT22;5543;51.734;8.744;2023-05-16T05:32:51;9.90;99.90
10980;DHT22;5543;51.734;8.744;2023-05-16T05:35:20;9.90;99.90
10980;DHT22;5543;51.734;8.744;2023-05-16T05:37:48;10.00;99.90
10980;DHT22;5543;51.734;8.744;2023-05-16T05:40:16;10.10;99.90
10980;DHT22;5543;51.734;8.744;2023-05-16T05:42:46;10.10;99.90
10980;DHT22;5543;51.734;8.744;2023-05-16T05:45:14;10.10;99.90
10980;DHT22;5543;51.734;8.744;2023-05-16T05:47:42;10.20;99.90
10980;DHT22;5543;51.734;8.744;2023-05-16T05:50:11;10.30;99.90
10980;DHT22;5543;51.734;8.744;2023-05-16T05:52:40;10.50;99.90
10980;DHT22;5543;51.734;8.744;2023-05-16T05:55:08;10.50;99.90
10980;DHT22;5543;51.734;8.744;2023-05-16T05:57:36;10.50;99.90
10980;DHT22;5543;51.734;8.744;2023-05-16T06:00:07;10.60;99.90
10980;DHT22;5543;51.734;8.744;2023-05-16T06:02:36;10.60;99.90
10980;DHT22;5543;51.734;8.744;2023-05-16T06:05:05;10.50;99.90
10980;DHT22;5543;51.734;8.744;2023-05-16T06:07:33;10.50;99.90
10980;DHT22;5543;51.734;8.744;2023-05-16T06:10:02;10.40;99.90
10980;DHT22;5543;51.734;8.744;2023-05-16T06:12:31;10.40;99.90
10980;DHT22;5543;51.734;8.744;2023-05-16T06:14:59;10.40;99.90
10980;DHT22;5543;51.734;8.744;2023-05-16T06:17:28;10.50;99.90
10980;DHT22;5543;51.734;8.744;2023-05-16T06:19:56;10.50;99.90
10980;DHT22;5543;51.734;8.744;2023-05-16T06:22:25;10.50;99.90
10980;DHT22;5543;51.734;8.744;2023-05-16T06:24:53;10.60;99.90
10980;DHT22;5543;51.734;8.744;2023-05-16T06:27:21;10.70;99.90
10980;DHT22;5543;51.734;8.744;2023-05-16T06:29:49;10.70;99.90
10980;DHT22;5543;51.734;8.744;2023-05-16T06:32:17;10.70;99.90
10980;DHT22;5543;51.734;8.744;2023-05-16T06:34:47;10.70;99.90
10980;DHT22;5543;51.734;8.744;2023-05-16T06:37:15;10.80;99.90
10980;DHT22;5543;51.734;8.744;2023-05-16T06:39:44;10.90;99.90
10980;DHT22;5543;51.734;8.744;2023-05-16T06:42:12;11.00;99.90
10980;DHT22;5543;51.734;8.744;2023-05-16T06:44:40;11.00;99.90
10980;DHT22;5543;51.734;8.744;2023-05-16T06:47:09;10.90;99.90
10980;DHT22;5543;51.734;8.744;2023-05-16T06:49:38;11.00;99.90
10980;DHT22;5543;51.734;8.744;2023-05-16T06:52:08;11.00;99.90
10980;DHT22;5543;51.734;8.744;2023-05-16T06:54:37;11.00;99.90
10980;DHT22;5543;51.734;8.744;2023-05-16T06:57:06;11.00;99.90
10980;DHT22;5543;51.734;8.744;2023-05-16T06:59:35;11.00;99.90
10980;DHT22;5543;51.734;8.744;2023-05-16T07:02:03;10.90;99.90
10980;DHT22;5543;51.734;8.744;2023-05-16T07:04:32;11.00;99.90
10980;DHT22;5543;51.734;8.744;2023-05-16T07:07:00;11.10;99.90
10980;DHT22;5543;51.734;8.744;2023-05-16T07:09:30;11.30;99.90
10980;DHT22;5543;51.734;8.744;2023-05-16T07:11:58;11.50;99.90
10980;DHT22;5543;51.734;8.744;2023-05-16T07:14:26;11.90;99.90
10980;DHT22;5543;51.734;8.744;2023-05-16T07:16:55;12.10;99.90
10980;DHT22;5543;51.734;8.744;2023-05-16T07:19:23;12.30;99.90
10980;DHT22;5543;51.734;8.744;2023-05-16T07:21:51;12.40;99.90
10980;DHT22;5543;51.734;8.744;2023-05-16T07:24:20;12.30;99.90
10980;DHT22;5543;51.734;8.744;2023-05-16T07:26:49;12.20;99.90
10980;DHT22;5543;51.734;8.744;2023-05-16T07:29:18;12.10;99.90
10980;DHT22;5543;51.734;8.744;2023-05-16T07:31:46;11.80;99.90
10980;DHT22;5543;51.734;8.744;2023-05-16T07:34:14;11.90;99.90
10980;DHT22;5543;51.734;8.744;2023-05-16T07:36:42;11.80;99.80
10980;DHT22;5543;51.734;8.744;2023-05-16T07:39:11;11.80;99.20
10980;DHT22;5543;51.734;8.744;2023-05-16T07:41:39;11.80;99.60
10980;DHT22;5543;51.734;8.744;2023-05-16T07:44:08;11.80;99.20
10980;DHT22;5543;51.734;8.744;2023-05-16T07:46:37;11.80;99.40
10980;DHT22;5543;51.734;8.744;2023-05-16T07:49:05;12.00;98.90
10980;DHT22;5543;51.734;8.744;2023-05-16T07:51:33;12.00;98.60
10980;DHT22;5543;51.734;8.744;2023-05-16T07:54:02;12.10;98.90
10980;DHT22;5543;51.734;8.744;2023-05-16T07:56:30;12.40;98.60
10980;DHT22;5543;51.734;8.744;2023-05-16T07:58:58;12.60;98.30
10980;DHT22;5543;51.734;8.744;2023-05-16T08:01:28;12.70;97.40
10980;DHT22;5543;51.734;8.744;2023-05-16T08:03:56;12.80;97.60
10980;DHT22;5543;51.734;8.744;2023-05-16T08:06:25;12.90;98.30
10980;DHT22;5543;51.734;8.744;2023-05-16T08:08:53;12.80;98.10
10980;DHT22;5543;51.734;8.744;2023-05-16T08:11:22;12.60;97.60
10980;DHT22;5543;51.734;8.744;2023-05-16T08:13:50;12.50;98.30
10980;DHT22;5543;51.734;8.744;2023-05-16T08:16:18;12.50;98.30
10980;DHT22;5543;51.734;8.744;2023-05-16T08:18:47;12.40;98.20
10980;DHT22;5543;51.734;8.744;2023-05-16T08:21:16;12.40;98.70
10980;DHT22;5543;51.734;8.744;2023-05-16T08:23:44;12.80;98.10
10980;DHT22;5543;51.734;8.744;2023-05-16T08:26:12;13.50;98.00
10980;DHT22;5543;51.734;8.744;2023-05-16T08:28:40;14.50;96.20
10980;DHT22;5543;51.734;8.744;2023-05-16T08:31:09;15.90;95.40
10980;DHT22;5543;51.734;8.744;2023-05-16T08:33:37;17.50;93.90
10980;DHT22;5543;51.734;8.744;2023-05-16T08:36:08;18.20;92.40
10980;DHT22;5543;51.734;8.744;2023-05-16T08:38:36;18.30;91.90
10980;DHT22;5543;51.734;8.744;2023-05-16T08:41:05;18.00;91.20
10980;DHT22;5543;51.734;8.744;2023-05-16T08:43:33;17.60;91.00
10980;DHT22;5543;51.734;8.744;2023-05-16T08:46:02;18.20;92.80
10980;DHT22;5543;51.734;8.744;2023-05-16T08:48:31;18.70;91.40
10980;DHT22;5543;51.734;8.744;2023-05-16T08:51:02;19.60;90.80
10980;DHT22;5543;51.734;8.744;2023-05-16T08:53:39;20.60;91.00
10980;DHT22;5543;51.734;8.744;2023-05-16T08:56:10;21.20;84.80
10980;DHT22;5543;51.734;8.744;2023-05-16T08:58:39;20.20;78.50
10980;DHT22;5543;51.734;8.744;2023-05-16T09:01:08;20.20;85.10
10980;DHT22;5543;51.734;8.744;2023-05-16T09:03:37;19.70;84.50
10980;DHT22;5543;51.734;8.744;2023-05-16T09:06:05;19.30;84.30
10980;DHT22;5543;51.734;8.744;2023-05-16T09:08:35;19.90;87.80
10980;DHT22;5543;51.734;8.744;2023-05-16T09:11:03;21.10;85.20
10980;DHT22;5543;51.734;8.744;2023-05-16T09:13:32;20.60;78.30
10980;DHT22;5543;51.734;8.744;2023-05-16T09:16:13;19.90;81.60
10980;DHT22;5543;51.734;8.744;2023-05-16T09:18:43;19.10;82.50
10980;DHT22;5543;51.734;8.744;2023-05-16T09:21:12;18.00;82.70
10980;DHT22;5543;51.734;8.744;2023-05-16T09:23:43;17.70;83.90
10980;DHT22;5543;51.734;8.744;2023-05-16T09:26:12;17.10;84.30
10980;DHT22;5543;51.734;8.744;2023-05-16T09:28:41;16.50;86.00
10980;DHT22;5543;51.734;8.744;2023-05-16T09:31:20;16.00;88.10
10980;DHT22;5543;51.734;8.744;2023-05-16T09:33:48;17.00;89.50
10980;DHT22;5543;51.734;8.744;2023-05-16T09:36:17;18.70;88.80
10980;DHT22;5543;51.734;8.744;2023-05-16T09:38:50;20.60;81.00
10980;DHT22;5543;51.734;8.744;2023-05-16T09:41:20;22.50;84.10
10980;DHT22;5543;51.734;8.744;2023-05-16T09:43:49;23.30;73.20
10980;DHT22;5543;51.734;8.744;2023-05-16T09:46:17;24.20;74.10
10980;DHT22;5543;51.734;8.744;2023-05-16T09:48:46;24.90;70.80
10980;DHT22;5543;51.734;8.744;2023-05-16T09:51:15;25.30;68.20
10980;DHT22;5543;51.734;8.744;2023-05-16T09:53:43;25.80;68.50
10980;DHT22;5543;51.734;8.744;2023-05-16T09:56:14;26.70;62.70
10980;DHT22;5543;51.734;8.744;2023-05-16T09:58:43;26.10;56.60
10980;DHT22;5543;51.734;8.744;2023-05-16T10:01:13;24.00;59.90
10980;DHT22;5543;51.734;8.744;2023-05-16T10:03:42;22.10;63.60
10980;DHT22;5543;51.734;8.744;2023-05-16T10:06:11;20.60;65.50
10980;DHT22;5543;51.734;8.744;2023-05-16T10:08:41;18.90;70.10
10980;DHT22;5543;51.734;8.744;2023-05-16T10:11:12;17.70;71.00
10980;DHT22;5543;51.734;8.744;2023-05-16T10:13:41;18.10;75.20
10980;DHT22;5543;51.734;8.744;2023-05-16T10:16:11;19.50;74.20
10980;DHT22;5543;51.734;8.744;2023-05-16T10:18:41;21.50;72.50
10980;DHT22;5543;51.734;8.744;2023-05-16T10:21:14;23.40;66.50
10980;DHT22;5543;51.734;8.744;2023-05-16T10:23:46;24.40;63.80
10980;DHT22;5543;51.734;8.744;2023-05-16T10:26:16;24.80;64.80
10980;DHT22;5543;51.734;8.744;2023-05-16T10:28:45;25.70;60.10
10980;DHT22;5543;51.734;8.744;2023-05-16T10:31:15;25.70;60.20
10980;DHT22;5543;51.734;8.744;2023-05-16T10:33:45;26.30;58.20
10980;DHT22;5543;51.734;8.744;2023-05-16T10:36:15;27.20;55.60
10980;DHT22;5543;51.734;8.744;2023-05-16T10:38:45;28.10;57.70
10980;DHT22;5543;51.734;8.744;2023-05-16T10:41:16;28.20;57.20
10980;DHT22;5543;51.734;8.744;2023-05-16T10:43:55;28.40;53.60
10980;DHT22;5543;51.734;8.744;2023-05-16T10:46:25;27.70;54.20
10980;DHT22;5543;51.734;8.744;2023-05-16T10:48:54;27.20;55.50
10980;DHT22;5543;51.734;8.744;2023-05-16T10:51:35;27.00;52.80
10980;DHT22;5543;51.734;8.744;2023-05-16T10:54:08;26.90;50.30
10980;DHT22;5543;51.734;8.744;2023-05-16T10:56:39;27.00;52.90
10980;DHT22;5543;51.734;8.744;2023-05-16T10:59:22;27.80;52.30
10980;DHT22;5543;51.734;8.744;2023-05-16T11:01:52;28.60;51.20
10980;DHT22;5543;51.734;8.744;2023-05-16T11:04:21;29.30;48.30
10980;DHT22;5543;51.734;8.744;2023-05-16T11:06:50;30.10;50.20
10980;DHT22;5543;51.734;8.744;2023-05-16T11:09:26;29.10;46.80
10980;DHT22;5543;51.734;8.744;2023-05-16T11:12:01;27.00;47.90
10980;DHT22;5543;51.734;8.744;2023-05-16T11:14:37;25.10;49.80
10980;DHT22;5543;51.734;8.744;2023-05-16T11:17:09;23.20;53.40
10980;DHT22;5543;51.734;8.744;2023-05-16T11:19:41;21.80;54.80
10980;DHT22;5543;51.734;8.744;2023-05-16T11:22:21;21.50;57.30
10980;DHT22;5543;51.734;8.744;2023-05-16T11:24:55;23.20;58.70
10980;DHT22;5543;51.734;8.744;2023-05-16T11:27:28;25.40;57.10
10980;DHT22;5543;51.734;8.744;2023-05-16T11:29:59;26.40;52.30
10980;DHT22;5543;51.734;8.744;2023-05-16T11:32:30;25.20;49.70
10980;DHT22;5543;51.734;8.744;2023-05-16T11:34:58;23.80;53.30
10980;DHT22;5543;51.734;8.744;2023-05-16T11:37:27;22.30;54.60
10980;DHT22;5543;51.734;8.744;2023-05-16T11:39:58;21.20;57.60
10980;DHT22;5543;51.734;8.744;2023-05-16T11:42:30;21.50;59.00
10980;DHT22;5543;51.734;8.744;2023-05-16T11:45:04;22.40;56.50
10980;DHT22;5543;51.734;8.744;2023-05-16T11:47:34;23.90;55.60
10980;DHT22;5543;51.734;8.744;2023-05-16T11:50:04;25.60;52.70
10980;DHT22;5543;51.734;8.744;2023-05-16T11:52:33;27.20;50.60
10980;DHT22;5543;51.734;8.744;2023-05-16T11:55:04;28.30;51.00
10980;DHT22;5543;51.734;8.744;2023-05-16T11:57:35;28.00;48.00
10980;DHT22;5543;51.734;8.744;2023-05-16T12:00:04;26.80;48.20
10980;DHT22;5543;51.734;8.744;2023-05-16T12:02:40;25.20;50.70
10980;DHT22;5543;51.734;8.744;2023-05-16T12:05:10;23.80;52.10
10980;DHT22;5543;51.734;8.744;2023-05-16T12:07:39;23.70;55.40
10980;DHT22;5543;51.734;8.744;2023-05-16T12:10:08;23.90;54.30
10980;DHT22;5543;51.734;8.744;2023-05-16T12:12:40;24.40;54.80
10980;DHT22;5543;51.734;8.744;2023-05-16T12:15:11;24.00;53.50
10980;DHT22;5543;51.734;8.744;2023-05-16T12:17:41;23.60;53.70
10980;DHT22;5543;51.734;8.744;2023-05-16T12:20:10;22.70;53.60
10980;DHT22;5543;51.734;8.744;2023-05-16T12:22:41;21.70;55.50
10980;DHT22;5543;51.734;8.744;2023-05-16T12:25:24;20.80;57.10
10980;DHT22;5543;51.734;8.744;2023-05-16T12:27:57;19.80;56.70
10980;DHT22;5543;51.734;8.744;2023-05-16T12:30:28;18.80;58.10
10980;DHT22;5543;51.734;8.744;2023-05-16T12:32:57;18.10;60.70
10980;DHT22;5543;51.734;8.744;2023-05-16T12:35:32;18.70;62.00
10980;DHT22;5543;51.734;8.744;2023-05-16T12:38:03;20.10;62.00
10980;DHT22;5543;51.734;8.744;2023-05-16T12:40:35;21.80;60.90
10980;DHT22;5543;51.734;8.744;2023-05-16T12:43:13;22.20;55.40
10980;DHT22;5543;51.734;8.744;2023-05-16T12:45:49;21.60;55.10
10980;DHT22;5543;51.734;8.744;2023-05-16T12:48:19;20.90;56.60
10980;DHT22;5543;51.734;8.744;2023-05-16T12:50:48;20.10;57.60
10980;DHT22;5543;51.734;8.744;2023-05-16T12:53:18;18.90;57.80
10980;DHT22;5543;51.734;8.744;2023-05-16T12:55:46;18.00;59.00
10980;DHT22;5543;51.734;8.744;2023-05-16T12:58:16;17.30;61.50
10980;DHT22;5543;51.734;8.744;2023-05-16T13:00:46;16.70;64.40
10980;DHT22;5543;51.734;8.744;2023-05-16T13:03:15;16.20;66.40
10980;DHT22;5543;51.734;8.744;2023-05-16T13:05:45;15.70;64.00
10980;DHT22;5543;51.734;8.744;2023-05-16T13:08:13;15.40;67.90
10980;DHT22;5543;51.734;8.744;2023-05-16T13:10:41;15.20;71.20
10980;DHT22;5543;51.734;8.744;2023-05-16T13:13:10;15.40;71.80
10980;DHT22;5543;51.734;8.744;2023-05-16T13:16:02;16.20;66.40
10980;DHT22;5543;51.734;8.744;2023-05-16T13:18:31;18.10;69.20
10980;DHT22;5543;51.734;8.744;2023-05-16T13:21:00;18.60;63.10
10980;DHT22;5543;51.734;8.744;2023-05-16T13:23:30;18.50;61.80
10980;DHT22;5543;51.734;8.744;2023-05-16T13:25:58;18.10;61.40
10980;DHT22;5543;51.734;8.744;2023-05-16T13:28:27;17.60;60.50
10980;DHT22;5543;51.734;8.744;2023-05-16T13:30:56;16.90;63.00
10980;DHT22;5543;51.734;8.744;2023-05-16T13:33:28;16.40;65.70
10980;DHT22;5543;51.734;8.744;2023-05-16T13:35:57;16.00;66.90
10980;DHT22;5543;51.734;8.744;2023-05-16T13:38:26;15.60;68.50
10980;DHT22;5543;51.734;8.744;2023-05-16T13:40:54;15.40;68.30
10980;DHT22;5543;51.734;8.744;2023-05-16T13:43:23;15.20;67.10
10980;DHT22;5543;51.734;8.744;2023-05-16T13:45:53;15.30;68.60
10980;DHT22;5543;51.734;8.744;2023-05-16T13:48:23;15.30;67.50
10980;DHT22;5543;51.734;8.744;2023-05-16T13:50:54;15.40;67.40
10980;DHT22;5543;51.734;8.744;2023-05-16T13:53:22;15.50;67.10
10980;DHT22;5543;51.734;8.744;2023-05-16T13:55:54;15.50;66.30
10980;DHT22;5543;51.734;8.744;2023-05-16T13:58:23;15.60;66.40
10980;DHT22;5543;51.734;8.744;2023-05-16T14:00:51;15.90;66.50
10980;DHT22;5543;51.734;8.744;2023-05-16T14:03:20;16.20;66.60
10980;DHT22;5543;51.734;8.744;2023-05-16T14:05:49;17.10;69.00
10980;DHT22;5543;51.734;8.744;2023-05-16T14:08:19;17.40;67.00
10980;DHT22;5543;51.734;8.744;2023-05-16T14:10:47;17.40;64.30
10980;DHT22;5543;51.734;8.744;2023-05-16T14:13:16;17.20;63.70
10980;DHT22;5543;51.734;8.744;2023-05-16T14:15:44;17.10;63.70
10980;DHT22;5543;51.734;8.744;2023-05-16T14:18:13;16.80;64.90
10980;DHT22;5543;51.734;8.744;2023-05-16T14:20:42;16.60;65.10
10980;DHT22;5543;51.734;8.744;2023-05-16T14:23:10;16.50;66.00
10980;DHT22;5543;51.734;8.744;2023-05-16T14:25:40;16.40;66.70
10980;DHT22;5543;51.734;8.744;2023-05-16T14:28:08;16.50;66.30
10980;DHT22;5543;51.734;8.744;2023-05-16T14:30:37;16.60;65.20
10980;DHT22;5543;51.734;8.744;2023-05-16T14:33:08;17.30;66.50
10980;DHT22;5543;51.734;8.744;2023-05-16T14:35:38;17.40;65.10
10980;DHT22;5543;51.734;8.744;2023-05-16T14:38:06;17.50;64.10
10980;DHT22;5543;51.734;8.744;2023-05-16T14:40:35;17.40;61.00
10980;DHT22;5543;51.734;8.744;2023-05-16T14:43:06;17.20;63.30
10980;DHT22;5543;51.734;8.744;2023-05-16T14:45:35;17.00;63.80
10980;DHT22;5543;51.734;8.744;2023-05-16T14:48:04;16.80;65.60
10980;DHT22;5543;51.734;8.744;2023-05-16T14:50:34;16.70;65.50
10980;DHT22;5543;51.734;8.744;2023-05-16T14:53:02;16.80;67.60
10980;DHT22;5543;51.734;8.744;2023-05-16T14:55:31;17.00;64.90
10980;DHT22;5543;51.734;8.744;2023-05-16T14:57:59;17.50;65.60
10980;DHT22;5543;51.734;8.744;2023-05-16T15:00:28;17.90;63.20
10980;DHT22;5543;51.734;8.744;2023-05-16T15:02:57;18.50;65.70
10980;DHT22;5543;51.734;8.744;2023-05-16T15:05:28;18.90;63.70
10980;DHT22;5543;51.734;8.744;2023-05-16T15:07:56;19.20;59.80
10980;DHT22;5543;51.734;8.744;2023-05-16T15:10:33;19.20;61.60
10980;DHT22;5543;51.734;8.744;2023-05-16T15:13:02;18.90;61.70
10980;DHT22;5543;51.734;8.744;2023-05-16T15:15:32;18.20;60.30
10980;DHT22;5543;51.734;8.744;2023-05-16T15:18:00;17.70;62.60
10980;DHT22;5543;51.734;8.744;2023-05-16T15:20:28;17.10;64.90
10980;DHT22;5543;51.734;8.744;2023-05-16T15:22:57;16.50;64.70
10980;DHT22;5543;51.734;8.744;2023-05-16T15:25:25;16.20;64.10
10980;DHT22;5543;51.734;8.744;2023-05-16T15:27:54;16.40;67.70
10980;DHT22;5543;51.734;8.744;2023-05-16T15:30:22;16.90;67.30
10980;DHT22;5543;51.734;8.744;2023-05-16T15:32:52;17.40;65.10
10980;DHT22;5543;51.734;8.744;2023-05-16T15:35:24;17.90;62.40
10980;DHT22;5543;51.734;8.744;2023-05-16T15:37:53;17.90;63.30
10980;DHT22;5543;51.734;8.744;2023-05-16T15:40:22;18.00;63.40
10980;DHT22;5543;51.734;8.744;2023-05-16T15:42:53;18.10;63.90
10980;DHT22;5543;51.734;8.744;2023-05-16T15:45:21;18.40;65.10
10980;DHT22;5543;51.734;8.744;2023-05-16T15:47:49;18.30;64.30
10980;DHT22;5543;51.734;8.744;2023-05-16T15:50:19;18.20;60.70
10980;DHT22;5543;51.734;8.744;2023-05-16T15:52:48;17.80;60.70
10980;DHT22;5543;51.734;8.744;2023-05-16T15:55:17;17.50;63.20
10980;DHT22;5543;51.734;8.744;2023-05-16T15:57:45;17.00;64.30
10980;DHT22;5543;51.734;8.744;2023-05-16T16:00:15;16.70;66.20
10980;DHT22;5543;51.734;8.744;2023-05-16T16:02:43;16.20;65.70